Arnold, KS (67515)

5:21 PM CDT on July 28, 2016 (GMT -0500)
14204 270 Road | | Change Station
Active Advisory: Severe Thunderstorm Watch

Elev 2549 ft 38.65 °N, 99.99 °W | Updated 3 seconds ago

Scattered Clouds
Scattered Clouds
89.0 °F
Feels Like 91 °F
N
9.0
Wind Variable Wind from ESE
Gusts 12.0 mph

Today
High -- | Low -- °F
--% Chance of Precip.
Yesterday
High -- | Low -- °F
Precip. -- in
Pressure 29.98 in
Visibility 10.0 miles
Clouds Scattered Clouds 5000 ft
Heat Index 91 °F
Dew Point 64 °F
Humidity 44%
Rainfall 0.14 in
Snow Depth Not available.
6:38 AM 8:53 PM
Waning Crescent, 28% visible
METAR KHYS 282215Z 19003KT 10SM SCT050 32/18 A2998 RMK AO1 LTG DSNT N
Pressure 29.98 in
Visibility 10.0 miles
Clouds Scattered Clouds 5000 ft
Heat Index 91 °F
Dew Point 64 °F
Humidity 44%
Rainfall 0.14 in
Snow Depth Not available.
6:38 AM 8:53 PM
Waning Crescent, 28% visible
METAR KHYS 282215Z 19003KT 10SM SCT050 32/18 A2998 RMK AO1 LTG DSNT N

10-Day Weather Forecast

Almanac

Astronomy

Jul. 28, 2016 Rise Set
Actual Time
Civil Twilight
Nautical Twilight
Astronomical Twilight
Moon
Length of Visible Light
Length of Day
Tomorrow will be .
, % of the Moon is Illuminated

Today's Extremes

State Highs State Lows

Community

WunderPhotos

Upload Photos

1,928,220 photos uploaded!

WunderBlog® & News

Nearby

Air Quality

  Air Quality AQ Index Pollutant
Not available.

Snow Depth

Station Depth Elevation

Earthquake Activity

City Distance Mag. Time & Date
Minimum magnitude displayed is 2.5.

Coastal Water Temperatures

Place Temperature

Stations

Nearby Weather Stations

Station Location Temp. Windchill Dew Point Humidity Wind Precip. Elev Updated Type
                   

Watches & Warnings

Severe Thunderstorm Watch
Issued: 5:03 PM CDT Jul. 28, 2016 – National Weather Service

Severe Thunderstorm Watch 420 remains in effect until 1100 PM CDT
for the following locations


KS
. Kansas counties included are

Barton Butler cloud
Decatur Dickinson Edwards
Ellis Ellsworth Gove
Graham Harvey Jewell
Kingman Lincoln McPherson
Marion Mitchell Ness
Norton Osborne Ottawa
Pawnee Phillips Pratt
Reno Republic Rice
Rooks rush Russell
Saline Sedgwick Sheridan
Smith Stafford Trego